Time;durP1;ratioP1;P1;durP2;ratioP2;P2;SDS_P1;SDS_P2;PMS_P1;PMS_P2;Temp;Humidity;BMP_temperature;BMP_pressure;BME280_temperature;BME280_humidity;BME280_pressure;Samples;Min_cycle;Max_cycle;Signal;HPM_P1;HPM_P2
2023/11/20 00:00:13;;;;;;;16.37;2.93;;;11.30;99.90;;;;;;5039938;28;20228;-54
2023/11/20 00:02:43;;;;;;;24.43;3.63;;;11.30;99.90;;;;;;5041671;28;20290;-56
2023/11/20 00:05:12;;;;;;;19.07;3.30;;;11.30;99.90;;;;;;5041001;28;20260;-55
2023/11/20 00:07:40;;;;;;;22.53;3.53;;;11.40;99.90;;;;;;5042043;28;20189;-55
2023/11/20 00:10:10;;;;;;;15.90;3.50;;;11.40;99.90;;;;;;5052948;28;20303;-54
2023/11/20 00:12:38;;;;;;;13.67;3.40;;;11.40;99.90;;;;;;5051931;28;20548;-54
2023/11/20 00:15:08;;;;;;;17.10;3.37;;;11.40;99.90;;;;;;5046163;28;20271;-56
2023/11/20 00:17:37;;;;;;;19.17;3.40;;;11.30;99.90;;;;;;5047306;28;20252;-53
2023/11/20 00:20:09;;;;;;;18.00;3.40;;;11.30;99.90;;;;;;5047161;28;20691;-55
2023/11/20 00:22:39;;;;;;;21.83;3.30;;;11.30;99.90;;;;;;5046819;28;20232;-55
2023/11/20 00:25:07;;;;;;;22.63;4.00;;;11.20;99.90;;;;;;5046708;28;20316;-55
2023/11/20 00:27:37;;;;;;;23.07;3.77;;;11.20;99.90;;;;;;5046511;28;20217;-56
2023/11/20 00:30:07;;;;;;;16.37;3.97;;;11.10;99.90;;;;;;5043321;28;20725;-56
2023/11/20 00:32:36;;;;;;;17.93;3.60;;;11.10;99.90;;;;;;5050330;28;20216;-54
2023/11/20 00:35:04;;;;;;;27.80;4.07;;;11.20;99.90;;;;;;5078200;28;20243;-54
2023/11/20 00:37:33;;;;;;;26.97;3.87;;;11.20;99.90;;;;;;5050794;28;20280;-54
2023/11/20 00:40:02;;;;;;;22.30;3.97;;;11.20;99.90;;;;;;5053534;28;20227;-53
2023/11/20 00:42:30;;;;;;;17.37;3.57;;;11.10;99.90;;;;;;5045375;28;20239;-55
2023/11/20 00:45:02;;;;;;;25.27;4.03;;;11.10;99.90;;;;;;5051677;28;20231;-55
2023/11/20 00:47:32;;;;;;;15.47;3.40;;;11.10;99.90;;;;;;5044314;28;20223;-54
2023/11/20 00:50:00;;;;;;;19.53;3.47;;;11.10;99.90;;;;;;5048871;28;20219;-55
2023/11/20 00:52:29;;;;;;;26.03;4.23;;;11.00;99.90;;;;;;5051041;28;20197;-54
2023/11/20 00:54:58;;;;;;;15.93;3.60;;;11.00;99.90;;;;;;5047619;28;20224;-54
2023/11/20 00:57:27;;;;;;;16.63;3.00;;;11.00;99.90;;;;;;5053152;28;20300;-55
2023/11/20 00:59:55;;;;;;;22.43;3.70;;;11.00;99.90;;;;;;5047731;28;20226;-54
2023/11/20 01:02:25;;;;;;;18.67;3.40;;;11.00;99.90;;;;;;5041070;28;20224;-53
2023/11/20 01:04:53;;;;;;;16.50;2.90;;;11.00;99.90;;;;;;5042936;28;20197;-53
2023/11/20 01:07:21;;;;;;;19.40;3.23;;;11.00;99.90;;;;;;5044715;28;20200;-56
2023/11/20 01:09:49;;;;;;;15.13;3.63;;;11.00;99.90;;;;;;5051159;28;20224;-55
2023/11/20 01:12:18;;;;;;;17.50;2.97;;;10.90;99.90;;;;;;5046529;28;20224;-55
2023/11/20 01:14:47;;;;;;;17.57;3.40;;;10.90;99.90;;;;;;5050551;28;20560;-56
2023/11/20 01:17:16;;;;;;;15.63;2.93;;;11.00;99.90;;;;;;5050843;28;20247;-54
2023/11/20 01:19:46;;;;;;;12.97;2.80;;;11.10;99.90;;;;;;5046343;28;20189;-56
2023/11/20 01:22:14;;;;;;;10.37;3.10;;;11.10;99.90;;;;;;5046521;28;20192;-54
2023/11/20 01:24:42;;;;;;;17.73;3.00;;;11.10;99.90;;;;;;5037346;28;20236;-55
2023/11/20 01:27:11;;;;;;;12.37;3.30;;;11.20;99.90;;;;;;5048402;28;20247;-54
2023/11/20 01:29:39;;;;;;;20.57;2.80;;;11.20;99.90;;;;;;5046799;28;20221;-54
2023/11/20 01:32:08;;;;;;;16.20;3.27;;;11.20;99.90;;;;;;5055527;28;20244;-55
2023/11/20 01:34:36;;;;;;;11.50;2.83;;;11.30;99.90;;;;;;5051603;28;20643;-54
2023/11/20 01:37:06;;;;;;;20.33;3.37;;;11.30;99.90;;;;;;5054006;28;20216;-55
2023/11/20 01:39:35;;;;;;;13.80;3.47;;;11.30;99.90;;;;;;5055946;28;20224;-54
2023/11/20 01:42:04;;;;;;;17.00;3.00;;;11.30;99.90;;;;;;5046453;28;20293;-54
2023/11/20 01:44:32;;;;;;;23.73;3.40;;;11.20;99.90;;;;;;5053843;28;20212;-54
2023/11/20 01:47:02;;;;;;;26.80;4.10;;;11.20;99.90;;;;;;5051694;28;20216;-55
2023/11/20 01:49:31;;;;;;;19.80;2.80;;;11.30;99.90;;;;;;5054064;28;20284;-54
2023/11/20 01:51:59;;;;;;;15.17;3.20;;;11.20;99.90;;;;;;5044164;28;20220;-55
2023/11/20 01:54:31;;;;;;;22.70;4.03;;;11.20;99.90;;;;;;5043500;28;20772;-55
2023/11/20 01:57:01;;;;;;;16.80;3.10;;;11.20;99.90;;;;;;5051510;28;20240;-53
2023/11/20 01:59:33;;;;;;;15.27;2.80;;;11.20;99.90;;;;;;5050969;28;20239;-55
2023/11/20 02:02:02;;;;;;;24.30;3.40;;;11.20;99.90;;;;;;5046289;28;20247;-55
2023/11/20 02:04:31;;;;;;;21.90;3.40;;;11.20;99.90;;;;;;5047207;28;20288;-55
2023/11/20 02:07:00;;;;;;;22.17;3.23;;;11.20;99.90;;;;;;5046744;28;20209;-56
2023/11/20 02:09:29;;;;;;;15.07;2.83;;;11.10;99.90;;;;;;5046484;28;20220;-56
2023/11/20 02:11:58;;;;;;;18.03;2.90;;;11.10;99.90;;;;;;5049463;28;20225;-55
2023/11/20 02:14:26;;;;;;;16.77;3.30;;;11.10;99.90;;;;;;5045289;28;20261;-56
2023/11/20 02:16:55;;;;;;;23.47;3.37;;;11.00;99.90;;;;;;5046631;28;20216;-55
2023/11/20 02:19:23;;;;;;;14.53;3.50;;;10.90;99.90;;;;;;5054271;28;20232;-55
2023/11/20 02:21:51;;;;;;;20.33;3.60;;;10.90;99.90;;;;;;5046938;28;20692;-55
2023/11/20 02:24:22;;;;;;;13.70;2.97;;;10.80;99.90;;;;;;5048474;28;20738;-52
2023/11/20 02:27:03;;;;;;;18.47;3.50;;;10.80;99.90;;;;;;5046328;28;20683;-53
2023/11/20 02:29:53;;;;;;;19.17;3.47;;;10.90;99.90;;;;;;5053051;28;20217;-53
2023/11/20 02:32:21;;;;;;;21.50;3.10;;;10.90;99.90;;;;;;5046856;28;20220;-55
2023/11/20 02:34:51;;;;;;;20.07;3.43;;;10.80;99.90;;;;;;5052429;28;20196;-55
2023/11/20 02:37:19;;;;;;;27.37;4.63;;;10.80;99.90;;;;;;5053737;28;20697;-55
2023/11/20 02:39:51;;;;;;;16.90;3.30;;;10.80;99.90;;;;;;5046762;28;20313;-54
2023/11/20 02:42:19;;;;;;;15.27;3.33;;;10.80;99.90;;;;;;5045598;28;20723;-55
2023/11/20 02:44:52;;;;;;;22.23;3.63;;;10.80;99.90;;;;;;5048565;28;20765;-56
2023/11/20 02:47:22;;;;;;;15.70;3.40;;;10.80;99.90;;;;;;5050458;28;20598;-56
2023/11/20 02:49:50;;;;;;;28.60;3.97;;;10.70;99.90;;;;;;5048797;28;20243;-53
2023/11/20 02:52:19;;;;;;;23.10;3.50;;;10.70;99.90;;;;;;5048509;28;20203;-55
2023/11/20 02:54:47;;;;;;;23.03;3.33;;;10.60;99.90;;;;;;5054267;28;20220;-53
2023/11/20 02:57:15;;;;;;;14.90;2.90;;;10.60;99.90;;;;;;5042341;28;20209;-55
2023/11/20 02:59:43;;;;;;;21.80;3.17;;;10.50;99.90;;;;;;5049647;28;20217;-55
2023/11/20 03:02:14;;;;;;;16.80;3.40;;;10.40;99.90;;;;;;5050221;28;20224;-56
2023/11/20 03:04:46;;;;;;;17.97;2.83;;;10.40;99.90;;;;;;5048873;28;20192;-55
2023/11/20 03:07:14;;;;;;;15.77;3.10;;;10.30;99.90;;;;;;5042276;28;20214;-55
2023/11/20 03:09:43;;;;;;;14.70;3.33;;;10.30;99.90;;;;;;5045248;28;20220;-52
2023/11/20 03:12:11;;;;;;;14.83;3.20;;;10.30;99.90;;;;;;5048660;28;20231;-55
2023/11/20 03:14:40;;;;;;;18.50;3.63;;;10.30;99.90;;;;;;5046967;28;20227;-54
2023/11/20 03:17:08;;;;;;;22.33;3.47;;;10.30;99.90;;;;;;5042866;28;20370;-54
2023/11/20 03:19:38;;;;;;;18.97;3.30;;;10.30;99.90;;;;;;5050165;28;20296;-55
2023/11/20 03:22:07;;;;;;;17.50;3.27;;;10.30;99.90;;;;;;5045428;28;20220;-55
2023/11/20 03:24:37;;;;;;;14.70;3.37;;;10.30;99.90;;;;;;5006534;28;20680;-57
2023/11/20 03:27:05;;;;;;;23.80;3.50;;;10.30;99.90;;;;;;5007106;28;20268;-56
2023/11/20 03:29:33;;;;;;;20.07;3.20;;;10.40;99.90;;;;;;5007665;28;20321;-54
2023/11/20 03:32:02;;;;;;;18.30;3.63;;;10.40;99.90;;;;;;5013800;28;20719;-53
2023/11/20 03:34:30;;;;;;;24.63;3.87;;;10.30;99.90;;;;;;5002127;28;20199;-54
2023/11/20 03:36:59;;;;;;;24.77;4.03;;;10.30;99.90;;;;;;5009632;28;20220;-55
2023/11/20 03:39:28;;;;;;;19.07;3.80;;;10.20;99.90;;;;;;5008554;28;20313;-55
2023/11/20 03:41:56;;;;;;;29.20;3.43;;;10.20;99.90;;;;;;5004082;28;20719;-53
2023/11/20 03:44:24;;;;;;;22.57;3.33;;;10.20;99.90;;;;;;5013152;28;20229;-52
2023/11/20 03:46:52;;;;;;;21.07;3.30;;;10.10;99.90;;;;;;5008699;28;20218;-54
2023/11/20 03:49:21;;;;;;;21.23;4.33;;;10.10;99.90;;;;;;5011183;28;20195;-53
2023/11/20 03:51:50;;;;;;;22.57;3.63;;;10.10;99.90;;;;;;5005984;28;20224;-54
2023/11/20 03:54:19;;;;;;;19.07;3.00;;;10.10;99.90;;;;;;5011532;28;20251;-53
2023/11/20 03:56:47;;;;;;;20.60;3.13;;;10.00;99.90;;;;;;5007141;28;20573;-53
2023/11/20 03:59:16;;;;;;;21.83;3.37;;;10.00;99.90;;;;;;5006110;28;20741;-55
2023/11/20 04:01:46;;;;;;;19.53;3.70;;;10.00;99.90;;;;;;5005696;28;20613;-52
2023/11/20 04:04:14;;;;;;;25.43;3.73;;;10.00;99.90;;;;;;5004188;28;20197;-53
2023/11/20 04:06:42;;;;;;;24.90;3.90;;;10.00;99.90;;;;;;5011544;28;20214;-53
2023/11/20 04:09:10;;;;;;;25.43;4.10;;;10.00;99.90;;;;;;5005570;28;20293;-54
2023/11/20 04:11:42;;;;;;;25.93;4.17;;;9.90;99.90;;;;;;5004502;28;20233;-55
2023/11/20 04:14:11;;;;;;;28.80;4.10;;;9.90;99.90;;;;;;5006248;28;20233;-54
2023/11/20 04:16:39;;;;;;;27.03;4.23;;;10.00;99.90;;;;;;5006184;28;20240;-55
2023/11/20 04:19:09;;;;;;;24.77;4.27;;;10.00;99.90;;;;;;5006634;28;20227;-56
2023/11/20 04:21:37;;;;;;;22.87;3.80;;;9.90;99.90;;;;;;5006398;28;20677;-55
2023/11/20 04:24:07;;;;;;;26.87;4.13;;;9.90;99.90;;;;;;5039513;28;20229;-56
2023/11/20 04:26:35;;;;;;;26.10;4.17;;;9.90;99.90;;;;;;5048743;28;20224;-55
2023/11/20 04:29:05;;;;;;;21.93;3.93;;;9.90;99.90;;;;;;5050543;28;20232;-53
2023/11/20 04:31:33;;;;;;;22.73;3.57;;;9.90;99.90;;;;;;5037962;28;20272;-53
2023/11/20 04:34:03;;;;;;;20.90;3.30;;;9.90;99.90;;;;;;5052099;28;20216;-55
2023/11/20 04:36:31;;;;;;;27.07;3.53;;;9.90;99.90;;;;;;5049057;28;20234;-53
2023/11/20 04:39:00;;;;;;;22.13;3.73;;;9.90;99.90;;;;;;5040992;28;20591;-53
2023/11/20 04:41:28;;;;;;;20.10;3.63;;;9.80;99.90;;;;;;5041688;28;20279;-53
2023/11/20 04:43:57;;;;;;;24.27;3.70;;;9.80;99.90;;;;;;5049902;28;20192;-54
2023/11/20 04:46:26;;;;;;;25.27;3.93;;;9.70;99.90;;;;;;5051787;28;20203;-52
2023/11/20 04:48:55;;;;;;;31.50;4.40;;;9.70;99.90;;;;;;5046365;28;20217;-54
2023/11/20 04:51:25;;;;;;;29.50;4.07;;;9.70;99.90;;;;;;5040203;28;20574;-55
2023/11/20 04:53:53;;;;;;;16.37;3.10;;;9.60;99.90;;;;;;5047674;28;20644;-54
2023/11/20 04:56:21;;;;;;;35.00;4.17;;;9.60;99.90;;;;;;5039483;28;20224;-53
2023/11/20 04:58:49;;;;;;;21.43;3.50;;;9.70;99.90;;;;;;5047905;28;20181;-54
2023/11/20 05:01:21;;;;;;;23.20;3.70;;;9.70;99.90;;;;;;5044283;28;20735;-54
2023/11/20 05:03:52;;;;;;;19.53;3.77;;;9.70;99.90;;;;;;5048165;28;20218;-55
2023/11/20 05:06:20;;;;;;;28.27;4.53;;;9.70;99.90;;;;;;5046091;28;20212;-53
2023/11/20 05:08:49;;;;;;;28.83;3.87;;;9.70;99.90;;;;;;5044894;28;20378;-54
2023/11/20 05:11:17;;;;;;;28.93;3.97;;;9.60;99.90;;;;;;5040283;28;20252;-53
2023/11/20 05:13:45;;;;;;;20.53;3.50;;;9.60;99.90;;;;;;5041954;28;20204;-54
2023/11/20 05:16:16;;;;;;;22.60;4.50;;;9.50;99.90;;;;;;5043687;28;20192;-54
2023/11/20 05:18:45;;;;;;;23.60;4.93;;;9.50;99.90;;;;;;5041671;28;20267;-55
2023/11/20 05:21:14;;;;;;;17.00;3.93;;;9.50;99.90;;;;;;5044721;28;20216;-55
2023/11/20 05:23:42;;;;;;;23.10;3.60;;;9.50;99.90;;;;;;5040987;28;20252;-56
2023/11/20 05:26:11;;;;;;;21.27;3.60;;;9.40;99.90;;;;;;5038937;28;20224;-55
2023/11/20 05:28:39;;;;;;;26.00;4.40;;;9.40;99.90;;;;;;5043071;28;20809;-55
2023/11/20 05:31:07;;;;;;;27.67;3.73;;;9.40;99.90;;;;;;5040592;28;20707;-55
2023/11/20 05:33:35;;;;;;;21.60;4.23;;;9.40;99.90;;;;;;5047330;28;20314;-54
2023/11/20 05:36:04;;;;;;;29.30;4.37;;;9.30;99.90;;;;;;5046938;28;20295;-55
2023/11/20 05:38:34;;;;;;;19.10;3.60;;;9.40;99.90;;;;;;5045177;28;20575;-54
2023/11/20 05:41:02;;;;;;;23.90;3.83;;;9.40;99.90;;;;;;5039223;28;20237;-55
2023/11/20 05:43:30;;;;;;;23.60;4.60;;;9.40;99.90;;;;;;5045384;28;20651;-53
2023/11/20 05:45:58;;;;;;;23.97;4.03;;;9.50;99.90;;;;;;5042312;28;20854;-55
2023/11/20 05:48:27;;;;;;;27.33;4.30;;;9.60;99.90;;;;;;5051691;28;20595;-54
2023/11/20 05:50:55;;;;;;;28.07;4.23;;;9.60;99.90;;;;;;5042232;28;20308;-53
2023/11/20 05:53:24;;;;;;;30.00;4.13;;;9.60;99.90;;;;;;5045683;28;20549;-54
2023/11/20 05:55:53;;;;;;;19.17;3.63;;;9.70;99.90;;;;;;5044495;28;20663;-54
2023/11/20 05:58:22;;;;;;;24.60;3.57;;;9.70;99.90;;;;;;5043111;28;20285;-54
2023/11/20 06:00:50;;;;;;;24.47;3.43;;;9.70;99.90;;;;;;5045103;28;20698;-55
2023/11/20 06:03:18;;;;;;;22.23;3.63;;;9.80;99.90;;;;;;5043211;28;20583;-55
2023/11/20 06:05:46;;;;;;;21.90;3.97;;;9.80;99.90;;;;;;5036631;28;20236;-55
2023/11/20 06:08:15;;;;;;;23.70;3.70;;;9.80;99.90;;;;;;5042994;28;20239;-55
2023/11/20 06:10:43;;;;;;;16.43;3.77;;;9.80;99.90;;;;;;5043206;28;20189;-55
2023/11/20 06:13:12;;;;;;;24.70;3.70;;;9.80;99.90;;;;;;5050868;28;20540;-55
2023/11/20 06:15:41;;;;;;;21.27;3.37;;;9.90;99.90;;;;;;5048665;28;20303;-55
2023/11/20 06:18:09;;;;;;;23.40;3.33;;;9.90;99.90;;;;;;5048984;28;20210;-55
2023/11/20 06:20:37;;;;;;;16.57;3.77;;;10.00;99.90;;;;;;5047379;28;20225;-52
2023/11/20 06:23:06;;;;;;;26.50;3.63;;;9.90;99.90;;;;;;5053048;28;20284;-54
2023/11/20 06:25:34;;;;;;;19.70;3.03;;;9.90;99.90;;;;;;5048868;28;20188;-55
2023/11/20 06:28:02;;;;;;;20.67;4.17;;;9.90;99.90;;;;;;5048176;28;20223;-54
2023/11/20 06:30:32;;;;;;;17.07;3.50;;;9.80;99.90;;;;;;5042687;28;20213;-52
2023/11/20 06:33:03;;;;;;;19.17;3.30;;;9.80;99.90;;;;;;5043827;28;20220;-54
2023/11/20 06:35:34;;;;;;;11.70;2.90;;;9.80;99.90;;;;;;5039427;28;20226;-55
2023/11/20 06:38:03;;;;;;;21.80;4.77;;;9.80;99.90;;;;;;5048400;28;20228;-54
2023/11/20 06:40:33;;;;;;;13.23;3.10;;;9.80;99.90;;;;;;5047921;28;20272;-56
2023/11/20 06:43:03;;;;;;;20.80;4.13;;;9.80;99.90;;;;;;5049752;28;20216;-53
2023/11/20 06:45:37;;;;;;;21.73;3.80;;;9.80;99.90;;;;;;5038342;28;20308;-55
2023/11/20 06:48:07;;;;;;;15.80;3.07;;;9.80;99.90;;;;;;5045185;28;20308;-55
2023/11/20 06:50:35;;;;;;;13.57;3.90;;;9.90;99.90;;;;;;5045361;28;20570;-55
2023/11/20 06:53:08;;;;;;;24.43;3.37;;;9.90;99.90;;;;;;5050633;28;20307;-54
2023/11/20 06:55:37;;;;;;;13.20;3.03;;;10.00;99.90;;;;;;5049429;28;20209;-54
2023/11/20 06:58:05;;;;;;;16.77;3.37;;;10.00;99.90;;;;;;5058965;28;20220;-53
2023/11/20 07:00:34;;;;;;;16.40;3.67;;;10.00;99.90;;;;;;5050529;28;20227;-54
2023/11/20 07:03:04;;;;;;;11.73;3.20;;;10.10;99.90;;;;;;5048649;28;20335;-54
2023/11/20 07:05:34;;;;;;;13.90;3.27;;;10.10;99.90;;;;;;5046001;28;20221;-55
2023/11/20 07:08:06;;;;;;;17.00;3.27;;;10.10;99.90;;;;;;5041315;28;20274;-52
2023/11/20 07:10:35;;;;;;;14.57;3.17;;;10.10;99.90;;;;;;5046873;28;20181;-51
2023/11/20 07:13:04;;;;;;;11.20;2.90;;;10.10;99.90;;;;;;5045349;28;20670;-50
2023/11/20 07:15:33;;;;;;;17.43;3.07;;;10.20;99.90;;;;;;5050177;28;20228;-52
2023/11/20 07:18:04;;;;;;;25.93;3.13;;;10.20;99.90;;;;;;5051166;28;20270;-55
2023/11/20 07:20:32;;;;;;;12.60;2.93;;;10.20;99.90;;;;;;5043682;28;20232;-54
2023/11/20 07:23:01;;;;;;;11.13;2.70;;;10.20;99.90;;;;;;5048606;28;20220;-52
2023/11/20 07:25:33;;;;;;;13.60;3.20;;;10.30;99.90;;;;;;5047532;28;20599;-51
2023/11/20 07:28:01;;;;;;;11.13;3.13;;;10.30;99.90;;;;;;5046897;28;20307;-56
2023/11/20 07:31:08;;;;;;;10.87;2.90;;;10.30;99.90;;;;;;5051071;28;20225;-53
2023/11/20 07:33:37;;;;;;;7.57;2.63;;;10.30;99.90;;;;;;5047999;28;20579;-55
2023/11/20 07:36:09;;;;;;;9.33;2.10;;;10.40;99.90;;;;;;5047755;28;20224;-51
2023/11/20 07:38:38;;;;;;;7.83;2.40;;;10.30;99.90;;;;;;5044391;28;20225;-54
2023/11/20 07:41:08;;;;;;;10.00;2.70;;;10.40;99.90;;;;;;5049071;28;20586;-55
2023/11/20 07:43:36;;;;;;;8.77;2.60;;;10.40;99.90;;;;;;5052738;28;20212;-54
2023/11/20 07:46:06;;;;;;;11.47;2.77;;;10.40;99.90;;;;;;5050630;28;20230;-53
2023/11/20 07:48:35;;;;;;;8.23;2.40;;;10.40;99.90;;;;;;5048335;28;20227;-55
2023/11/20 07:51:05;;;;;;;10.27;2.40;;;10.40;99.90;;;;;;5044885;28;20213;-54
2023/11/20 07:53:34;;;;;;;12.00;2.37;;;10.40;99.90;;;;;;5052148;28;20217;-56
2023/11/20 07:56:03;;;;;;;4.63;1.83;;;10.30;99.90;;;;;;5053663;28;20295;-52
2023/11/20 07:58:32;;;;;;;7.53;2.30;;;10.30;99.90;;;;;;5045357;28;20194;-55
2023/11/20 08:01:02;;;;;;;11.40;2.83;;;10.30;99.90;;;;;;5047720;28;20221;-55
2023/11/20 08:04:11;;;;;;;11.77;2.73;;;10.30;99.90;;;;;;5044824;28;20229;-54
2023/11/20 08:06:59;;;;;;;11.33;2.50;;;10.30;99.90;;;;;;5050207;28;20307;-56
2023/11/20 08:09:27;;;;;;;10.80;3.00;;;10.20;99.90;;;;;;5046832;28;20586;-54
2023/11/20 08:11:56;;;;;;;12.20;2.60;;;10.20;99.90;;;;;;5049934;28;20649;-57
2023/11/20 08:14:24;;;;;;;11.40;3.00;;;10.20;99.90;;;;;;5040184;28;20216;-55
2023/11/20 08:16:54;;;;;;;10.43;2.70;;;10.20;99.90;;;;;;5048865;28;20197;-56
2023/11/20 08:19:22;;;;;;;8.17;2.73;;;10.20;99.90;;;;;;5053987;28;20727;-57
2023/11/20 08:21:51;;;;;;;14.27;3.27;;;10.20;99.90;;;;;;5047812;28;20228;-54
2023/11/20 08:24:21;;;;;;;10.70;2.70;;;10.20;99.90;;;;;;5048436;28;20303;-55
2023/11/20 08:26:49;;;;;;;6.83;2.70;;;10.20;99.90;;;;;;5044357;28;20259;-56
2023/11/20 08:29:19;;;;;;;13.13;2.87;;;10.20;99.90;;;;;;5053046;28;20687;-55
2023/11/20 08:31:47;;;;;;;9.77;2.50;;;10.20;99.90;;;;;;5048807;28;20199;-56
2023/11/20 08:34:16;;;;;;;4.43;2.20;;;10.20;99.90;;;;;;5050599;28;20287;-54
2023/11/20 08:36:49;;;;;;;7.83;2.40;;;10.20;99.90;;;;;;5046820;28;20220;-54
2023/11/20 08:39:19;;;;;;;9.30;2.40;;;10.20;99.90;;;;;;5051465;28;20262;-55
2023/11/20 08:41:48;;;;;;;9.10;2.30;;;10.20;99.90;;;;;;5051424;28;20226;-56
2023/11/20 08:44:17;;;;;;;9.93;2.30;;;10.10;99.90;;;;;;5044833;28;20227;-56
2023/11/20 08:46:46;;;;;;;11.87;2.60;;;10.10;99.90;;;;;;5051413;28;20189;-54
2023/11/20 08:49:16;;;;;;;9.67;2.27;;;10.00;99.90;;;;;;5051040;28;20192;-54
2023/11/20 08:51:45;;;;;;;10.10;2.40;;;10.10;99.90;;;;;;5033712;28;20237;-56
2023/11/20 08:54:24;;;;;;;7.00;2.27;;;10.30;99.90;;;;;;5040980;28;20718;-54
2023/11/20 08:56:53;;;;;;;9.20;2.73;;;10.40;99.90;;;;;;5043428;28;20347;-56
2023/11/20 08:59:22;;;;;;;7.43;2.60;;;10.50;99.90;;;;;;5049731;28;20307;-56
2023/11/20 09:02:10;;;;;;;10.67;2.73;;;10.60;99.90;;;;;;5044533;28;20189;-55
2023/11/20 09:04:40;;;;;;;8.10;2.80;;;10.60;99.90;;;;;;5046700;28;20197;-54
2023/11/20 09:07:08;;;;;;;15.13;3.57;;;10.80;99.90;;;;;;5046225;28;20208;-56
2023/11/20 09:09:37;;;;;;;10.47;2.50;;;10.90;99.90;;;;;;5047073;28;20221;-55
2023/11/20 09:12:07;;;;;;;7.13;2.40;;;11.10;99.90;;;;;;5041420;28;20227;-57
2023/11/20 09:14:37;;;;;;;15.13;3.23;;;11.20;99.90;;;;;;5047791;28;20232;-56
2023/11/20 09:17:44;;;;;;;9.93;3.00;;;11.30;99.90;;;;;;5045840;28;20236;-56
2023/11/20 09:20:20;;;;;;;9.10;2.73;;;11.20;99.90;;;;;;5041807;28;20227;-56
2023/11/20 09:22:48;;;;;;;9.20;2.43;;;11.10;99.90;;;;;;5051605;28;20246;-56
2023/11/20 09:25:17;;;;;;;9.77;2.73;;;11.10;99.90;;;;;;5046508;28;20552;-55
2023/11/20 09:27:47;;;;;;;10.20;2.90;;;11.10;99.90;;;;;;5049174;28;20224;-55
2023/11/20 09:30:18;;;;;;;15.77;3.63;;;11.00;99.90;;;;;;5034863;28;20232;-56
2023/11/20 09:32:47;;;;;;;7.30;2.60;;;11.00;99.90;;;;;;5042002;28;20254;-56
2023/11/20 09:35:15;;;;;;;6.77;2.70;;;10.80;99.90;;;;;;5051450;28;20228;-56
2023/11/20 09:37:45;;;;;;;10.70;3.10;;;10.80;99.90;;;;;;5040421;28;20193;-56
2023/11/20 09:40:32;;;;;;;13.53;3.20;;;10.70;99.90;;;;;;5049416;28;20551;-56
2023/11/20 09:43:06;;;;;;;8.57;2.83;;;10.60;99.90;;;;;;5040835;28;20220;-56
2023/11/20 09:45:39;;;;;;;13.70;3.20;;;10.60;99.90;;;;;;5049386;28;20236;-56
2023/11/20 09:48:21;;;;;;;12.10;3.50;;;10.50;99.90;;;;;;5056248;28;20224;-55
2023/11/20 09:51:09;;;;;;;11.53;3.90;;;10.60;99.90;;;;;;5050901;28;20236;-56
2023/11/20 09:53:43;;;;;;;17.07;3.60;;;10.60;99.90;;;;;;5055155;28;20220;-55
2023/11/20 09:56:13;;;;;;;19.07;3.27;;;10.60;99.90;;;;;;5046495;28;20666;-56
2023/11/20 09:58:43;;;;;;;10.27;3.70;;;10.70;99.90;;;;;;5045937;28;20207;-56
2023/11/20 10:01:13;;;;;;;15.67;3.60;;;10.80;99.90;;;;;;5047654;28;20240;-55
2023/11/20 10:03:44;;;;;;;9.93;4.10;;;10.90;99.90;;;;;;5038490;28;20291;-54
2023/11/20 10:06:18;;;;;;;13.40;4.27;;;11.00;99.90;;;;;;5046739;28;20216;-55
2023/11/20 10:08:47;;;;;;;12.90;4.63;;;11.10;99.90;;;;;;5048606;28;20295;-55
2023/11/20 10:14:42;;;;;;;12.17;4.67;;;11.30;99.90;;;;;;5054254;28;20224;-53
2023/11/20 10:17:14;;;;;;;19.27;4.93;;;11.30;99.90;;;;;;5055072;28;20228;-56
2023/11/20 10:19:44;;;;;;;11.93;4.40;;;11.30;99.90;;;;;;5051233;28;20200;-55
2023/11/20 10:22:14;;;;;;;20.37;4.53;;;11.40;99.90;;;;;;5054172;28;20555;-55
2023/11/20 10:24:43;;;;;;;17.80;4.67;;;11.40;99.90;;;;;;5049290;28;20225;-55
2023/11/20 10:27:14;;;;;;;9.10;3.80;;;11.40;99.90;;;;;;5042753;28;20653;-52
2023/11/20 10:30:22;;;;;;;6.60;3.43;;;11.20;99.90;;;;;;5043994;28;20683;-53
2023/11/20 10:32:53;;;;;;;13.30;4.30;;;11.10;99.90;;;;;;5047535;28;20227;-53
2023/11/20 10:35:22;;;;;;;11.40;3.93;;;11.00;99.90;;;;;;5044603;28;20229;-53
2023/11/20 10:37:58;;;;;;;9.00;4.03;;;11.10;99.90;;;;;;5054781;28;20245;-53
2023/11/20 10:40:26;;;;;;;8.67;3.70;;;11.00;99.90;;;;;;5053021;28;20766;-55
2023/11/20 10:42:55;;;;;;;12.93;4.00;;;11.00;99.90;;;;;;5045795;28;20671;-55
2023/11/20 10:45:24;;;;;;;11.17;4.13;;;11.00;99.90;;;;;;5034130;28;20622;-50
2023/11/20 10:47:53;;;;;;;13.30;3.60;;;11.00;99.90;;;;;;5046583;28;20676;-53
2023/11/20 10:57:12;;;;;;;9.37;3.40;;;11.10;99.90;;;;;;5041790;28;20270;-53
2023/11/20 10:59:43;;;;;;;11.53;4.10;;;11.20;99.90;;;;;;5054592;28;20226;-54
2023/11/20 11:02:19;;;;;;;14.73;4.40;;;11.20;99.90;;;;;;5049961;28;20240;-54
2023/11/20 11:04:52;;;;;;;14.50;3.27;;;11.10;99.90;;;;;;5052355;28;20295;-54
2023/11/20 11:07:22;;;;;;;10.87;3.50;;;11.20;99.90;;;;;;5054986;28;20197;-55
2023/11/20 11:09:52;;;;;;;14.37;3.60;;;11.20;99.90;;;;;;5049630;28;20236;-53
2023/11/20 11:12:23;;;;;;;11.90;3.43;;;11.10;99.90;;;;;;5047478;28;20236;-52
2023/11/20 11:14:51;;;;;;;7.70;3.00;;;11.20;99.90;;;;;;5044114;28;20533;-53
2023/11/20 11:17:30;;;;;;;11.70;3.23;;;11.20;99.90;;;;;;5047750;28;20225;-54
2023/11/20 11:20:04;;;;;;;10.53;2.80;;;11.20;99.90;;;;;;5046775;28;20188;-53
2023/11/20 11:22:33;;;;;;;12.87;3.30;;;11.20;99.90;;;;;;5043189;28;20227;-55
2023/11/20 11:25:09;;;;;;;9.87;3.43;;;11.20;99.90;;;;;;5046983;28;20217;-52
2023/11/20 11:27:47;;;;;;;10.30;3.67;;;11.20;99.90;;;;;;5049406;28;20754;-53
2023/11/20 11:30:17;;;;;;;20.43;4.10;;;11.10;99.90;;;;;;5050764;28;20220;-53
2023/11/20 11:33:08;;;;;;;13.23;3.17;;;11.10;99.90;;;;;;5048813;28;20640;-55
2023/11/20 11:35:59;;;;;;;11.07;3.13;;;11.00;99.90;;;;;;5047513;28;20219;-55
2023/11/20 11:38:36;;;;;;;8.80;3.00;;;11.10;99.90;;;;;;5041904;28;20224;-56
2023/11/20 11:41:17;;;;;;;12.27;3.20;;;11.10;99.90;;;;;;5050673;28;20220;-55
2023/11/20 11:43:53;;;;;;;13.37;3.47;;;11.20;99.90;;;;;;5042957;28;20201;-53
2023/11/20 11:46:22;;;;;;;13.07;3.07;;;11.20;99.90;;;;;;5039398;28;20225;-55
2023/11/20 11:48:51;;;;;;;13.77;3.27;;;11.30;99.90;;;;;;5047634;28;20297;-55
2023/11/20 11:51:24;;;;;;;10.63;3.37;;;11.30;99.90;;;;;;5038191;28;20275;-54
2023/11/20 11:54:15;;;;;;;14.17;2.80;;;11.30;99.90;;;;;;5035681;28;20220;-55
2023/11/20 11:56:54;;;;;;;15.80;3.13;;;11.40;99.90;;;;;;5041466;28;20600;-53
2023/11/20 11:59:32;;;;;;;10.00;2.83;;;11.40;99.90;;;;;;5052939;28;20235;-54
2023/11/20 12:02:02;;;;;;;11.23;2.83;;;11.40;99.90;;;;;;5049221;28;20205;-56
2023/11/20 12:05:07;;;;;;;12.33;2.70;;;11.40;99.90;;;;;;5042795;28;20652;-52
2023/11/20 12:07:52;;;;;;;7.40;2.90;;;11.40;99.90;;;;;;5042117;28;20225;-54
2023/11/20 12:10:40;;;;;;;14.47;3.20;;;11.40;99.90;;;;;;5039170;28;20193;-53
2023/11/20 12:13:10;;;;;;;11.87;2.97;;;11.30;99.90;;;;;;5051873;28;20224;-53
2023/11/20 12:15:40;;;;;;;13.33;3.07;;;11.20;99.90;;;;;;5039494;28;20227;-52
2023/11/20 12:18:12;;;;;;;10.43;2.90;;;11.20;99.90;;;;;;5044841;28;20626;-55
2023/11/20 12:20:43;;;;;;;9.30;2.70;;;11.10;99.90;;;;;;5049323;28;20885;-54
2023/11/20 12:23:24;;;;;;;12.63;3.20;;;11.00;99.90;;;;;;5047866;28;20217;-55
2023/11/20 12:25:54;;;;;;;10.03;2.90;;;11.00;99.90;;;;;;5047250;28;20196;-55
2023/11/20 12:28:23;;;;;;;6.87;3.03;;;10.90;99.90;;;;;;5038802;28;20201;-55
2023/11/20 12:30:52;;;;;;;20.40;3.47;;;10.80;99.90;;;;;;5050337;28;20231;-54
2023/11/20 12:33:20;;;;;;;8.97;3.13;;;10.70;99.90;;;;;;5044750;28;20221;-54
2023/11/20 12:35:52;;;;;;;15.00;2.80;;;10.70;99.90;;;;;;5052636;28;20717;-53
2023/11/20 12:38:22;;;;;;;12.80;3.03;;;10.70;99.90;;;;;;5041091;28;20217;-55
2023/11/20 12:40:51;;;;;;;13.53;3.37;;;10.60;99.90;;;;;;5046092;28;20193;-54
2023/11/20 12:43:21;;;;;;;11.67;3.43;;;10.60;99.90;;;;;;5047662;28;20185;-55
2023/11/20 12:45:51;;;;;;;19.40;3.17;;;10.60;99.90;;;;;;5038916;28;20217;-55
2023/11/20 12:48:19;;;;;;;14.97;3.17;;;10.50;99.90;;;;;;5049417;28;20587;-55
2023/11/20 12:50:49;;;;;;;12.33;2.87;;;10.40;99.90;;;;;;5052794;28;20232;-55
2023/11/20 12:53:18;;;;;;;12.23;3.00;;;10.40;99.90;;;;;;5047895;28;20315;-52
2023/11/20 12:55:50;;;;;;;7.40;2.63;;;10.30;99.90;;;;;;5045661;28;20197;-55
2023/11/20 12:58:19;;;;;;;7.73;2.90;;;10.20;99.90;;;;;;5052160;28;20193;-55
2023/11/20 13:00:48;;;;;;;7.30;2.80;;;10.20;99.90;;;;;;5052547;28;20220;-55
2023/11/20 13:03:18;;;;;;;11.13;2.67;;;10.20;99.90;;;;;;5039395;28;20260;-54
2023/11/20 13:05:48;;;;;;;8.43;2.53;;;10.20;99.90;;;;;;5042766;28;20626;-56
2023/11/20 13:08:19;;;;;;;11.10;3.00;;;10.10;99.90;;;;;;5051375;28;20270;-56